createdAt,value
2023-04-19T00:03:47.474Z,8.92
2023-04-19T00:08:55.944Z,8.92
2023-04-19T00:14:05.305Z,8.62
2023-04-19T00:19:15.208Z,8.62
2023-04-19T00:24:25.223Z,8.58
2023-04-19T00:29:35.622Z,8.58
2023-04-19T00:34:45.369Z,8.72
2023-04-19T00:39:53.851Z,8.72
2023-04-19T00:45:03.604Z,8.69
2023-04-19T00:50:13.446Z,8.69
2023-04-19T00:55:23.096Z,8.81
2023-04-19T01:00:33.552Z,8.81
2023-04-19T01:05:42.027Z,8.95
2023-04-19T01:10:51.763Z,8.48
2023-04-19T01:16:01.754Z,8.48
2023-04-19T01:21:11.289Z,8.65
2023-04-19T01:26:21.051Z,8.65
2023-04-19T01:31:30.576Z,8.56
2023-04-19T01:36:39.897Z,8.56
2023-04-19T01:41:47.770Z,8.39
2023-04-19T01:46:58.537Z,8.39
2023-04-19T01:52:06.668Z,8.36
2023-04-19T01:57:15.801Z,8.36
2023-04-19T02:02:29.755Z,8.24
2023-04-19T02:07:37.225Z,8.24
2023-04-19T02:12:46.346Z,8.14
2023-04-19T02:17:56.378Z,8.14
2023-04-19T02:23:05.225Z,8.07
2023-04-19T02:28:14.290Z,8.07
2023-04-19T02:33:23.452Z,7.94
2023-04-19T02:38:31.927Z,7.94
2023-04-19T02:43:41.048Z,7.87
2023-04-19T02:48:50.827Z,7.87
2023-04-19T02:54:00.546Z,7.73
2023-04-19T02:59:10.947Z,7.73
2023-04-19T03:14:37.697Z,7.92
2023-04-19T04:01:02.389Z,7.67
2023-04-19T04:06:10.192Z,7.74
2023-04-19T04:11:18.689Z,7.66
2023-04-19T04:16:27.370Z,7.66
2023-04-19T04:21:35.711Z,7.79
2023-04-19T04:26:45.327Z,7.79
2023-04-19T04:31:55.376Z,7.81
2023-04-19T04:37:03.643Z,7.81
2023-04-19T04:42:13.358Z,7.75
2023-04-19T04:47:23.582Z,7.75
2023-04-19T04:52:32.851Z,8
2023-04-19T04:57:42.054Z,8
2023-04-19T05:02:52.316Z,7.81
2023-04-19T05:08:23.948Z,7.81
2023-04-19T05:13:32.402Z,7.8
2023-04-19T05:18:42.803Z,7.8
2023-04-19T05:23:52.034Z,8.11
2023-04-19T05:29:01.075Z,8.11
2023-04-19T05:34:10.805Z,7.86
2023-04-19T05:39:20.657Z,7.86
2023-04-19T05:44:30.390Z,7.88
2023-04-19T05:49:43.547Z,7.88
2023-04-19T05:54:52.446Z,7.77
2023-04-19T06:00:03.537Z,7.77
2023-04-19T06:05:12.791Z,7.85
2023-04-19T06:10:19.812Z,7.85
2023-04-19T06:15:30.881Z,7.69
2023-04-19T06:20:38.790Z,7.69
2023-04-19T06:25:46.588Z,7.78
2023-04-19T06:30:56.273Z,7.78
2023-04-19T06:36:06.059Z,7.94
2023-04-19T06:41:15.775Z,7.94
2023-04-19T06:46:24.699Z,7.79
2023-04-19T06:51:32.135Z,7.79
2023-04-19T06:56:41.200Z,7.69
2023-04-19T07:01:52.524Z,7.74
2023-04-19T07:07:02.036Z,7.74
2023-04-19T07:12:10.528Z,7.78
2023-04-19T07:17:18.970Z,7.78
2023-04-19T07:22:29.358Z,7.85
2023-04-19T08:15:20.304Z,7.73
2023-04-19T08:19:17.327Z,7.73
2023-04-19T08:24:28.351Z,7.74
2023-04-19T08:29:35.618Z,7.74
2023-04-19T08:34:44.715Z,7.56
2023-04-19T08:39:55.790Z,7.56
2023-04-19T08:51:06.232Z,7.68
2023-04-19T08:55:27.645Z,7.61
2023-04-19T09:00:38.055Z,7.61
2023-04-19T09:05:49.523Z,7.58
2023-04-19T09:10:57.480Z,7.58
2023-04-19T09:16:06.140Z,7.5
2023-04-19T09:21:16.439Z,7.5
2023-04-19T09:26:24.283Z,7.61
2023-04-19T09:31:53.391Z,7.61
2023-04-19T09:36:44.389Z,7.71
2023-04-19T09:41:53.870Z,7.71
2023-04-19T09:47:02.698Z,7.5
2023-04-19T09:52:12.388Z,7.5
2023-04-19T09:57:20.883Z,7.59
2023-04-19T10:02:32.890Z,7.63
2023-04-19T10:07:41.297Z,7.63
2023-04-19T10:13:27.185Z,7.66
2023-04-19T10:18:02.422Z,7.66
2023-04-19T10:23:12.875Z,7.76
2023-04-19T10:28:21.366Z,7.76
2023-04-19T10:33:33.043Z,7.52
2023-04-19T10:38:42.184Z,7.52
2023-04-19T10:43:53.243Z,7.76
2023-04-19T10:49:01.757Z,7.76
2023-04-19T10:54:11.417Z,7.68
2023-04-19T10:59:22.048Z,7.68
2023-04-19T11:04:33.021Z,7.68
2023-04-19T11:09:41.371Z,7.68
2023-04-19T11:14:51.195Z,7.6
2023-04-19T11:20:02.362Z,7.6
2023-04-19T11:25:12.115Z,7.7
2023-04-19T12:16:53.670Z,7.92
2023-04-19T12:53:47.223Z,7.98
2023-04-19T12:58:56.927Z,7.98
2023-04-19T13:04:07.573Z,7.91
2023-04-19T13:09:15.845Z,7.91
2023-04-19T13:14:24.915Z,7.79
2023-04-19T13:19:34.666Z,7.79
2023-04-19T13:24:43.735Z,7.75
2023-04-19T13:29:52.870Z,7.75
2023-04-19T13:35:02.679Z,7.87
2023-04-19T13:40:20.429Z,7.87
2023-04-19T13:45:21.551Z,7.93
2023-04-19T13:50:30.668Z,7.93
2023-04-19T13:55:40.383Z,7.89
2023-04-19T14:00:49.164Z,7.89
2023-04-19T14:05:59.319Z,7.75
2023-04-19T14:11:07.783Z,7.75
2023-04-19T14:16:18.433Z,7.71
2023-04-19T14:21:27.283Z,7.71
2023-04-19T14:26:36.435Z,7.78
2023-04-19T14:31:45.792Z,7.78
2023-04-19T14:36:55.290Z,7.7
2023-04-19T14:42:05.710Z,7.7
2023-04-19T14:47:16.096Z,7.81
2023-04-19T14:52:25.857Z,7.81
2023-04-19T14:57:34.995Z,7.92
2023-04-19T15:02:45.024Z,7.92
2023-04-19T15:07:53.233Z,7.85
2023-04-19T15:13:02.956Z,7.85
2023-04-19T15:18:13.362Z,7.8
2023-04-19T15:23:23.113Z,8
2023-04-19T15:28:32.234Z,8
2023-04-19T15:33:42.098Z,7.89
2023-04-19T15:38:50.493Z,7.89
2023-04-19T15:43:59.631Z,7.88
2023-04-19T15:49:08.097Z,7.88
2023-04-19T16:35:33.457Z,7.73
2023-04-19T16:40:42.500Z,7.73
2023-04-19T16:45:52.529Z,7.84
2023-04-19T16:51:01.986Z,7.84
2023-04-19T16:56:12.436Z,7.74
2023-04-19T17:01:21.182Z,7.74
2023-04-19T17:06:29.389Z,7.81
2023-04-19T17:11:38.553Z,7.81
2023-04-19T17:16:46.979Z,7.84
2023-04-19T17:21:57.375Z,7.84
2023-04-19T17:27:06.467Z,7.71
2023-04-19T17:32:16.900Z,7.71
2023-04-19T17:37:25.477Z,7.65
2023-04-19T17:42:34.478Z,7.65
2023-04-19T17:47:44.730Z,7.96
2023-04-19T17:52:53.325Z,7.96
2023-04-19T17:58:02.483Z,7.8
2023-04-19T18:03:13.198Z,7.8
2023-04-19T18:08:20.723Z,7.68
2023-04-19T18:13:30.526Z,7.68
2023-04-19T18:18:40.211Z,7.96
2023-04-19T18:23:49.353Z,7.96
2023-04-19T18:28:57.242Z,7.75
2023-04-19T18:34:06.353Z,7.96
2023-04-19T18:39:17.763Z,7.96
2023-04-19T18:44:55.113Z,7.96
2023-04-19T18:49:34.440Z,7.96
2023-04-19T18:54:44.116Z,7.96
2023-04-19T18:59:53.197Z,7.96
2023-04-19T19:15:21.230Z,7.87
2023-04-19T19:20:29.094Z,7.87
2023-04-19T19:25:38.153Z,8.09
2023-04-19T19:30:46.631Z,8.09
2023-04-19T19:52:00.239Z,8.22
2023-04-19T20:22:19.214Z,7.65
2023-04-19T20:27:27.697Z,7.93
2023-04-19T20:32:37.511Z,7.93
2023-04-19T20:37:47.782Z,7.75
2023-04-19T20:42:56.245Z,7.75
2023-04-19T20:48:05.628Z,7.81
2023-04-19T20:53:13.859Z,7.81
2023-04-19T20:58:23.025Z,7.78
2023-04-19T21:03:34.120Z,7.78
2023-04-19T21:08:41.580Z,7.64
2023-04-19T21:13:50.349Z,7.64
2023-04-19T21:19:00.130Z,7.82
2023-04-19T21:24:09.227Z,7.82
2023-04-19T21:29:19.283Z,7.71
2023-04-19T21:34:26.211Z,7.71
2023-04-19T21:39:35.331Z,7.74
2023-04-19T21:44:43.793Z,7.65
2023-04-19T21:49:53.556Z,7.65
2023-04-19T21:55:02.733Z,7.99
2023-04-19T22:00:12.711Z,7.99
2023-04-19T22:05:21.546Z,7.75
2023-04-19T22:10:30.669Z,7.75
2023-04-19T22:15:39.130Z,7.61
2023-04-19T22:20:48.910Z,7.61
2023-04-19T22:25:57.407Z,7.65
2023-04-19T22:31:05.840Z,7.65
2023-04-19T22:36:15.006Z,7.56
2023-04-19T22:41:23.431Z,7.56
2023-04-19T22:46:33.785Z,7.71
2023-04-19T22:51:42.943Z,7.71
2023-04-19T22:56:52.158Z,7.72
2023-04-19T23:02:02.602Z,7.72
2023-04-19T23:07:12.270Z,7.59
2023-04-19T23:12:20.739Z,7.59
2023-04-19T23:17:30.075Z,7.92
